sensor_id;sensor_type;location;lat;lon;timestamp;P1;durP1;ratioP1;P2;durP2;ratioP2
74908;SDS011;63468;52.058;4.824;2024-03-23T00:55:10;21.48;;;7.97;;
74908;SDS011;63468;52.058;4.824;2024-03-23T00:57:36;20.08;;;7.63;;
74908;SDS011;63468;52.058;4.824;2024-03-23T01:00:01;14.57;;;6.65;;
74908;SDS011;63468;52.058;4.824;2024-03-23T01:02:27;18.55;;;8.00;;
74908;SDS011;63468;52.058;4.824;2024-03-23T01:04:52;20.65;;;7.72;;
74908;SDS011;63468;52.058;4.824;2024-03-23T01:07:18;14.90;;;7.05;;
74908;SDS011;63468;52.058;4.824;2024-03-23T01:09:43;16.77;;;8.45;;
74908;SDS011;63468;52.058;4.824;2024-03-23T01:12:08;17.77;;;8.60;;
74908;SDS011;63468;52.058;4.824;2024-03-23T01:14:34;22.10;;;7.85;;
74908;SDS011;63468;52.058;4.824;2024-03-23T01:17:01;16.83;;;6.93;;
74908;SDS011;63468;52.058;4.824;2024-03-23T01:19:26;18.80;;;7.45;;
74908;SDS011;63468;52.058;4.824;2024-03-23T01:21:52;15.38;;;7.20;;
74908;SDS011;63468;52.058;4.824;2024-03-23T01:24:17;22.58;;;8.75;;
74908;SDS011;63468;52.058;4.824;2024-03-23T01:26:42;18.02;;;6.65;;
74908;SDS011;63468;52.058;4.824;2024-03-23T01:29:08;17.52;;;6.85;;
74908;SDS011;63468;52.058;4.824;2024-03-23T01:31:33;21.13;;;7.50;;
74908;SDS011;63468;52.058;4.824;2024-03-23T01:33:58;16.13;;;6.30;;
74908;SDS011;63468;52.058;4.824;2024-03-23T01:36:24;20.35;;;6.88;;
74908;SDS011;63468;52.058;4.824;2024-03-23T01:38:49;19.70;;;6.80;;
74908;SDS011;63468;52.058;4.824;2024-03-23T01:41:16;19.20;;;6.53;;
74908;SDS011;63468;52.058;4.824;2024-03-23T01:43:42;17.00;;;6.93;;
74908;SDS011;63468;52.058;4.824;2024-03-23T01:46:08;13.07;;;6.03;;
74908;SDS011;63468;52.058;4.824;2024-03-23T01:48:33;16.63;;;6.65;;
74908;SDS011;63468;52.058;4.824;2024-03-23T01:50:59;14.27;;;6.85;;
74908;SDS011;63468;52.058;4.824;2024-03-23T01:53:24;17.60;;;5.88;;
74908;SDS011;63468;52.058;4.824;2024-03-23T01:55:50;12.25;;;5.95;;
74908;SDS011;63468;52.058;4.824;2024-03-23T01:58:16;17.42;;;6.60;;
74908;SDS011;63468;52.058;4.824;2024-03-23T02:00:41;17.67;;;6.78;;
74908;SDS011;63468;52.058;4.824;2024-03-23T02:03:27;14.02;;;6.32;;
74908;SDS011;63468;52.058;4.824;2024-03-23T02:05:53;16.52;;;5.97;;
74908;SDS011;63468;52.058;4.824;2024-03-23T02:08:19;16.30;;;6.22;;
74908;SDS011;63468;52.058;4.824;2024-03-23T02:10:46;18.40;;;6.15;;
74908;SDS011;63468;52.058;4.824;2024-03-23T02:13:13;13.90;;;5.75;;
74908;SDS011;63468;52.058;4.824;2024-03-23T02:15:39;12.23;;;5.10;;
74908;SDS011;63468;52.058;4.824;2024-03-23T02:18:04;16.10;;;5.13;;
74908;SDS011;63468;52.058;4.824;2024-03-23T02:20:32;16.00;;;4.75;;
74908;SDS011;63468;52.058;4.824;2024-03-23T02:22:57;14.45;;;5.03;;
74908;SDS011;63468;52.058;4.824;2024-03-23T02:25:22;14.68;;;5.45;;
74908;SDS011;63468;52.058;4.824;2024-03-23T02:27:48;17.08;;;5.03;;
74908;SDS011;63468;52.058;4.824;2024-03-23T02:30:13;24.55;;;5.72;;
74908;SDS011;63468;52.058;4.824;2024-03-23T02:32:38;16.98;;;5.43;;
74908;SDS011;63468;52.058;4.824;2024-03-23T02:35:04;14.85;;;4.78;;
74908;SDS011;63468;52.058;4.824;2024-03-23T02:37:29;18.67;;;4.40;;
74908;SDS011;63468;52.058;4.824;2024-03-23T02:39:55;16.67;;;5.05;;
74908;SDS011;63468;52.058;4.824;2024-03-23T02:42:20;13.63;;;5.05;;
74908;SDS011;63468;52.058;4.824;2024-03-23T02:44:46;12.43;;;4.72;;
74908;SDS011;63468;52.058;4.824;2024-03-23T02:47:11;11.38;;;3.80;;
74908;SDS011;63468;52.058;4.824;2024-03-23T02:49:36;14.70;;;4.60;;
74908;SDS011;63468;52.058;4.824;2024-03-23T02:52:02;17.77;;;5.95;;
74908;SDS011;63468;52.058;4.824;2024-03-23T02:54:27;13.48;;;4.60;;
74908;SDS011;63468;52.058;4.824;2024-03-23T02:56:53;9.93;;;3.97;;
74908;SDS011;63468;52.058;4.824;2024-03-23T02:59:18;11.15;;;3.85;;
74908;SDS011;63468;52.058;4.824;2024-03-23T03:01:43;11.05;;;4.10;;
74908;SDS011;63468;52.058;4.824;2024-03-23T03:04:08;12.85;;;3.95;;
74908;SDS011;63468;52.058;4.824;2024-03-23T03:06:34;20.38;;;4.50;;
74908;SDS011;63468;52.058;4.824;2024-03-23T03:08:59;19.15;;;4.05;;
74908;SDS011;63468;52.058;4.824;2024-03-23T03:11:25;12.48;;;3.80;;
74908;SDS011;63468;52.058;4.824;2024-03-23T03:13:50;10.55;;;3.45;;
74908;SDS011;63468;52.058;4.824;2024-03-23T03:16:15;12.68;;;4.22;;
74908;SDS011;63468;52.058;4.824;2024-03-23T03:18:41;12.38;;;4.20;;
74908;SDS011;63468;52.058;4.824;2024-03-23T03:21:06;15.25;;;4.03;;
74908;SDS011;63468;52.058;4.824;2024-03-23T03:23:36;12.20;;;4.20;;
74908;SDS011;63468;52.058;4.824;2024-03-23T03:26:04;12.18;;;4.15;;
74908;SDS011;63468;52.058;4.824;2024-03-23T03:28:33;11.10;;;3.53;;
74908;SDS011;63468;52.058;4.824;2024-03-23T03:30:59;10.45;;;3.90;;
74908;SDS011;63468;52.058;4.824;2024-03-23T03:33:26;11.90;;;3.72;;
74908;SDS011;63468;52.058;4.824;2024-03-23T03:35:52;15.77;;;4.60;;
74908;SDS011;63468;52.058;4.824;2024-03-23T03:38:18;10.18;;;3.95;;
74908;SDS011;63468;52.058;4.824;2024-03-23T03:40:43;14.85;;;4.35;;
74908;SDS011;63468;52.058;4.824;2024-03-23T03:43:09;16.00;;;4.30;;
74908;SDS011;63468;52.058;4.824;2024-03-23T03:45:34;11.70;;;3.88;;
74908;SDS011;63468;52.058;4.824;2024-03-23T03:47:59;12.18;;;4.18;;
74908;SDS011;63468;52.058;4.824;2024-03-23T03:50:25;14.32;;;3.88;;
74908;SDS011;63468;52.058;4.824;2024-03-23T03:52:50;15.18;;;3.95;;
74908;SDS011;63468;52.058;4.824;2024-03-23T03:55:15;14.40;;;4.13;;
74908;SDS011;63468;52.058;4.824;2024-03-23T03:57:41;13.35;;;3.72;;
74908;SDS011;63468;52.058;4.824;2024-03-23T04:00:07;13.88;;;4.40;;
74908;SDS011;63468;52.058;4.824;2024-03-23T04:02:36;15.63;;;3.60;;
74908;SDS011;63468;52.058;4.824;2024-03-23T04:05:02;12.23;;;3.92;;
74908;SDS011;63468;52.058;4.824;2024-03-23T04:07:28;17.00;;;4.65;;
74908;SDS011;63468;52.058;4.824;2024-03-23T04:09:53;14.15;;;3.90;;
74908;SDS011;63468;52.058;4.824;2024-03-23T04:12:19;12.95;;;4.72;;
74908;SDS011;63468;52.058;4.824;2024-03-23T04:14:45;10.75;;;3.60;;
74908;SDS011;63468;52.058;4.824;2024-03-23T04:17:10;13.35;;;4.63;;
74908;SDS011;63468;52.058;4.824;2024-03-23T04:19:35;13.30;;;3.80;;
74908;SDS011;63468;52.058;4.824;2024-03-23T04:22:01;11.40;;;3.40;;
74908;SDS011;63468;52.058;4.824;2024-03-23T04:24:26;9.25;;;3.70;;
74908;SDS011;63468;52.058;4.824;2024-03-23T04:26:51;16.73;;;4.60;;
74908;SDS011;63468;52.058;4.824;2024-03-23T04:29:17;8.80;;;3.35;;
74908;SDS011;63468;52.058;4.824;2024-03-23T04:31:42;12.00;;;4.22;;
74908;SDS011;63468;52.058;4.824;2024-03-23T04:34:08;13.73;;;3.75;;
74908;SDS011;63468;52.058;4.824;2024-03-23T04:36:33;15.43;;;4.15;;
74908;SDS011;63468;52.058;4.824;2024-03-23T04:38:59;9.00;;;3.70;;
74908;SDS011;63468;52.058;4.824;2024-03-23T04:41:25;13.35;;;4.25;;
74908;SDS011;63468;52.058;4.824;2024-03-23T04:43:50;15.25;;;4.15;;
74908;SDS011;63468;52.058;4.824;2024-03-23T04:46:16;11.30;;;4.25;;
74908;SDS011;63468;52.058;4.824;2024-03-23T04:48:41;11.20;;;3.55;;
74908;SDS011;63468;52.058;4.824;2024-03-23T04:51:09;11.10;;;3.40;;
74908;SDS011;63468;52.058;4.824;2024-03-23T04:53:37;9.30;;;3.60;;
74908;SDS011;63468;52.058;4.824;2024-03-23T04:56:02;10.27;;;4.63;;
74908;SDS011;63468;52.058;4.824;2024-03-23T04:58:29;11.80;;;3.80;;
74908;SDS011;63468;52.058;4.824;2024-03-23T05:00:55;15.18;;;3.72;;
74908;SDS011;63468;52.058;4.824;2024-03-23T05:03:21;10.57;;;3.65;;
74908;SDS011;63468;52.058;4.824;2024-03-23T05:05:47;6.85;;;3.58;;
74908;SDS011;63468;52.058;4.824;2024-03-23T05:08:13;9.82;;;3.22;;
74908;SDS011;63468;52.058;4.824;2024-03-23T05:10:38;12.27;;;3.50;;
74908;SDS011;63468;52.058;4.824;2024-03-23T05:13:04;12.63;;;3.50;;
74908;SDS011;63468;52.058;4.824;2024-03-23T05:15:29;9.43;;;3.40;;
74908;SDS011;63468;52.058;4.824;2024-03-23T05:17:55;9.85;;;3.88;;
74908;SDS011;63468;52.058;4.824;2024-03-23T05:20:20;15.45;;;4.32;;
74908;SDS011;63468;52.058;4.824;2024-03-23T05:22:46;10.70;;;4.60;;
74908;SDS011;63468;52.058;4.824;2024-03-23T05:25:11;13.02;;;3.45;;
74908;SDS011;63468;52.058;4.824;2024-03-23T05:27:37;12.40;;;3.42;;
74908;SDS011;63468;52.058;4.824;2024-03-23T05:30:02;13.38;;;3.78;;
74908;SDS011;63468;52.058;4.824;2024-03-23T05:32:29;11.90;;;3.83;;
74908;SDS011;63468;52.058;4.824;2024-03-23T05:34:54;13.63;;;4.28;;
74908;SDS011;63468;52.058;4.824;2024-03-23T05:37:22;11.15;;;4.20;;
74908;SDS011;63468;52.058;4.824;2024-03-23T05:39:48;12.27;;;3.50;;
74908;SDS011;63468;52.058;4.824;2024-03-23T05:42:15;16.33;;;4.35;;
74908;SDS011;63468;52.058;4.824;2024-03-23T05:44:46;10.93;;;3.85;;
74908;SDS011;63468;52.058;4.824;2024-03-23T05:47:12;14.02;;;3.63;;
74908;SDS011;63468;52.058;4.824;2024-03-23T05:49:39;11.10;;;4.00;;
74908;SDS011;63468;52.058;4.824;2024-03-23T05:52:06;10.32;;;3.67;;
74908;SDS011;63468;52.058;4.824;2024-03-23T05:54:32;17.23;;;4.13;;
74908;SDS011;63468;52.058;4.824;2024-03-23T05:56:57;10.77;;;3.75;;
74908;SDS011;63468;52.058;4.824;2024-03-23T05:59:23;12.30;;;4.20;;
74908;SDS011;63468;52.058;4.824;2024-03-23T06:01:48;12.00;;;4.00;;
74908;SDS011;63468;52.058;4.824;2024-03-23T06:04:13;12.45;;;4.22;;
74908;SDS011;63468;52.058;4.824;2024-03-23T06:06:39;13.90;;;4.65;;
74908;SDS011;63468;52.058;4.824;2024-03-23T06:09:04;11.55;;;4.07;;
74908;SDS011;63468;52.058;4.824;2024-03-23T06:11:30;12.00;;;4.38;;
74908;SDS011;63468;52.058;4.824;2024-03-23T06:13:55;11.82;;;4.95;;
74908;SDS011;63468;52.058;4.824;2024-03-23T06:16:21;12.00;;;4.07;;
74908;SDS011;63468;52.058;4.824;2024-03-23T06:18:49;12.80;;;4.00;;
74908;SDS011;63468;52.058;4.824;2024-03-23T06:21:17;17.27;;;4.53;;
74908;SDS011;63468;52.058;4.824;2024-03-23T06:23:43;13.55;;;5.00;;
74908;SDS011;63468;52.058;4.824;2024-03-23T06:26:13;15.40;;;4.85;;
74908;SDS011;63468;52.058;4.824;2024-03-23T06:28:38;12.50;;;5.03;;
74908;SDS011;63468;52.058;4.824;2024-03-23T06:31:08;10.40;;;4.00;;
74908;SDS011;63468;52.058;4.824;2024-03-23T06:33:34;9.13;;;4.60;;
74908;SDS011;63468;52.058;4.824;2024-03-23T06:35:59;13.52;;;5.47;;
74908;SDS011;63468;52.058;4.824;2024-03-23T06:38:24;15.88;;;5.05;;
74908;SDS011;63468;52.058;4.824;2024-03-23T06:40:50;13.32;;;4.75;;
74908;SDS011;63468;52.058;4.824;2024-03-23T06:43:17;12.20;;;5.28;;
74908;SDS011;63468;52.058;4.824;2024-03-23T06:45:43;13.18;;;5.03;;
74908;SDS011;63468;52.058;4.824;2024-03-23T06:48:08;12.23;;;4.88;;
74908;SDS011;63468;52.058;4.824;2024-03-23T06:50:34;11.55;;;4.70;;
74908;SDS011;63468;52.058;4.824;2024-03-23T06:52:59;12.98;;;5.13;;
74908;SDS011;63468;52.058;4.824;2024-03-23T06:55:26;11.45;;;4.18;;
74908;SDS011;63468;52.058;4.824;2024-03-23T06:57:52;15.38;;;4.47;;
74908;SDS011;63468;52.058;4.824;2024-03-23T07:00:18;11.52;;;4.60;;
74908;SDS011;63468;52.058;4.824;2024-03-23T07:02:43;8.98;;;4.43;;
74908;SDS011;63468;52.058;4.824;2024-03-23T07:05:09;15.32;;;4.63;;
74908;SDS011;63468;52.058;4.824;2024-03-23T07:07:35;16.02;;;4.75;;
74908;SDS011;63468;52.058;4.824;2024-03-23T07:10:01;12.40;;;4.18;;
74908;SDS011;63468;52.058;4.824;2024-03-23T07:12:26;13.98;;;4.72;;
74908;SDS011;63468;52.058;4.824;2024-03-23T07:14:52;13.15;;;4.10;;
74908;SDS011;63468;52.058;4.824;2024-03-23T07:17:17;10.48;;;3.78;;
74908;SDS011;63468;52.058;4.824;2024-03-23T07:19:43;10.95;;;3.40;;
74908;SDS011;63468;52.058;4.824;2024-03-23T07:22:08;12.38;;;3.95;;
74908;SDS011;63468;52.058;4.824;2024-03-23T07:24:34;11.68;;;3.80;;
74908;SDS011;63468;52.058;4.824;2024-03-23T07:26:59;11.77;;;3.53;;
74908;SDS011;63468;52.058;4.824;2024-03-23T07:29:25;11.30;;;3.60;;
74908;SDS011;63468;52.058;4.824;2024-03-23T07:31:50;12.15;;;4.00;;
74908;SDS011;63468;52.058;4.824;2024-03-23T07:34:15;9.18;;;3.65;;
74908;SDS011;63468;52.058;4.824;2024-03-23T07:36:41;11.48;;;4.03;;
74908;SDS011;63468;52.058;4.824;2024-03-23T07:39:06;10.95;;;4.47;;
74908;SDS011;63468;52.058;4.824;2024-03-23T07:41:33;11.95;;;4.40;;
74908;SDS011;63468;52.058;4.824;2024-03-23T07:43:58;13.75;;;4.60;;
74908;SDS011;63468;52.058;4.824;2024-03-23T07:46:23;10.93;;;3.70;;
74908;SDS011;63468;52.058;4.824;2024-03-23T07:48:50;11.93;;;4.53;;
74908;SDS011;63468;52.058;4.824;2024-03-23T07:51:16;14.45;;;4.05;;
74908;SDS011;63468;52.058;4.824;2024-03-23T07:53:44;11.75;;;4.13;;
74908;SDS011;63468;52.058;4.824;2024-03-23T07:56:13;7.97;;;3.75;;
74908;SDS011;63468;52.058;4.824;2024-03-23T07:58:46;12.27;;;3.20;;
74908;SDS011;63468;52.058;4.824;2024-03-23T08:01:13;9.70;;;3.38;;
74908;SDS011;63468;52.058;4.824;2024-03-23T08:03:41;9.43;;;3.65;;
74908;SDS011;63468;52.058;4.824;2024-03-23T08:08:33;14.98;;;4.50;;
74908;SDS011;63468;52.058;4.824;2024-03-23T08:10:58;18.50;;;3.90;;
74908;SDS011;63468;52.058;4.824;2024-03-23T08:13:24;11.45;;;3.92;;
74908;SDS011;63468;52.058;4.824;2024-03-23T08:15:49;8.20;;;3.65;;
74908;SDS011;63468;52.058;4.824;2024-03-23T08:18:14;13.20;;;3.78;;
74908;SDS011;63468;52.058;4.824;2024-03-23T08:20:40;10.93;;;4.55;;
74908;SDS011;63468;52.058;4.824;2024-03-23T08:23:06;11.32;;;3.38;;
74908;SDS011;63468;52.058;4.824;2024-03-23T08:25:31;12.30;;;3.60;;
74908;SDS011;63468;52.058;4.824;2024-03-23T08:27:57;12.90;;;3.65;;
74908;SDS011;63468;52.058;4.824;2024-03-23T08:30:23;10.48;;;4.07;;
74908;SDS011;63468;52.058;4.824;2024-03-23T08:32:48;8.27;;;3.45;;
74908;SDS011;63468;52.058;4.824;2024-03-23T08:35:14;7.75;;;3.40;;
74908;SDS011;63468;52.058;4.824;2024-03-23T08:37:39;8.60;;;3.28;;
74908;SDS011;63468;52.058;4.824;2024-03-23T08:40:05;12.30;;;4.15;;
74908;SDS011;63468;52.058;4.824;2024-03-23T08:42:30;11.45;;;4.05;;
74908;SDS011;63468;52.058;4.824;2024-03-23T08:44:56;8.23;;;3.65;;
74908;SDS011;63468;52.058;4.824;2024-03-23T08:47:21;8.23;;;3.38;;
74908;SDS011;63468;52.058;4.824;2024-03-23T08:49:46;13.38;;;4.28;;
74908;SDS011;63468;52.058;4.824;2024-03-23T08:52:12;17.40;;;4.50;;
74908;SDS011;63468;52.058;4.824;2024-03-23T08:54:37;12.40;;;4.53;;
74908;SDS011;63468;52.058;4.824;2024-03-23T08:57:02;12.18;;;3.75;;
74908;SDS011;63468;52.058;4.824;2024-03-23T08:59:28;13.20;;;4.55;;
74908;SDS011;63468;52.058;4.824;2024-03-23T09:01:53;8.38;;;3.40;;
74908;SDS011;63468;52.058;4.824;2024-03-23T09:04:19;11.98;;;4.45;;
74908;SDS011;63468;52.058;4.824;2024-03-23T09:06:44;12.18;;;4.13;;
74908;SDS011;63468;52.058;4.824;2024-03-23T09:09:09;11.73;;;4.88;;
74908;SDS011;63468;52.058;4.824;2024-03-23T09:11:35;10.88;;;4.32;;
74908;SDS011;63468;52.058;4.824;2024-03-23T09:14:00;10.40;;;5.15;;
74908;SDS011;63468;52.058;4.824;2024-03-23T09:16:26;11.00;;;4.18;;
74908;SDS011;63468;52.058;4.824;2024-03-23T09:18:51;16.35;;;4.97;;
74908;SDS011;63468;52.058;4.824;2024-03-23T09:21:17;15.52;;;4.38;;
74908;SDS011;63468;52.058;4.824;2024-03-23T09:23:45;13.55;;;4.65;;
74908;SDS011;63468;52.058;4.824;2024-03-23T09:26:11;9.48;;;3.85;;
74908;SDS011;63468;52.058;4.824;2024-03-23T09:28:36;9.50;;;4.85;;
74908;SDS011;63468;52.058;4.824;2024-03-23T09:31:05;11.43;;;5.65;;
74908;SDS011;63468;52.058;4.824;2024-03-23T09:33:31;9.77;;;5.55;;
74908;SDS011;63468;52.058;4.824;2024-03-23T09:35:57;11.10;;;4.40;;
74908;SDS011;63468;52.058;4.824;2024-03-23T09:38:23;11.20;;;4.43;;
74908;SDS011;63468;52.058;4.824;2024-03-23T09:40:52;10.45;;;4.80;;
74908;SDS011;63468;52.058;4.824;2024-03-23T09:43:18;9.82;;;4.72;;
74908;SDS011;63468;52.058;4.824;2024-03-23T09:45:44;19.58;;;5.90;;
74908;SDS011;63468;52.058;4.824;2024-03-23T09:48:10;10.95;;;5.60;;
74908;SDS011;63468;52.058;4.824;2024-03-23T09:50:38;9.27;;;4.45;;
74908;SDS011;63468;52.058;4.824;2024-03-23T09:53:04;13.68;;;4.80;;
74908;SDS011;63468;52.058;4.824;2024-03-23T09:55:31;9.70;;;5.10;;
74908;SDS011;63468;52.058;4.824;2024-03-23T09:57:56;13.68;;;5.10;;
74908;SDS011;63468;52.058;4.824;2024-03-23T10:00:22;11.20;;;5.75;;
74908;SDS011;63468;52.058;4.824;2024-03-23T10:02:48;10.88;;;5.53;;
74908;SDS011;63468;52.058;4.824;2024-03-23T10:05:19;9.07;;;5.10;;
74908;SDS011;63468;52.058;4.824;2024-03-23T10:07:46;9.38;;;5.07;;
74908;SDS011;63468;52.058;4.824;2024-03-23T10:10:12;10.25;;;5.40;;
74908;SDS011;63468;52.058;4.824;2024-03-23T10:12:40;17.98;;;5.30;;
74908;SDS011;63468;52.058;4.824;2024-03-23T10:15:15;11.25;;;4.07;;
74908;SDS011;63468;52.058;4.824;2024-03-23T10:17:43;8.10;;;4.03;;
74908;SDS011;63468;52.058;4.824;2024-03-23T10:20:09;9.15;;;4.40;;
74908;SDS011;63468;52.058;4.824;2024-03-23T10:22:37;12.10;;;4.97;;
74908;SDS011;63468;52.058;4.824;2024-03-23T10:25:10;14.43;;;4.50;;
74908;SDS011;63468;52.058;4.824;2024-03-23T10:27:36;12.02;;;4.35;;
74908;SDS011;63468;52.058;4.824;2024-03-23T10:30:08;8.43;;;4.32;;
74908;SDS011;63468;52.058;4.824;2024-03-23T10:32:34;12.20;;;5.70;;
74908;SDS011;63468;52.058;4.824;2024-03-23T10:35:18;13.65;;;5.28;;
74908;SDS011;63468;52.058;4.824;2024-03-23T10:37:46;12.02;;;4.88;;
74908;SDS011;63468;52.058;4.824;2024-03-23T10:40:12;10.27;;;4.85;;
74908;SDS011;63468;52.058;4.824;2024-03-23T10:42:38;13.27;;;5.18;;
74908;SDS011;63468;52.058;4.824;2024-03-23T10:45:04;14.23;;;5.80;;
74908;SDS011;63468;52.058;4.824;2024-03-23T10:47:31;14.70;;;5.13;;
74908;SDS011;63468;52.058;4.824;2024-03-23T10:49:57;12.43;;;5.72;;
74908;SDS011;63468;52.058;4.824;2024-03-23T10:52:22;10.13;;;5.43;;
74908;SDS011;63468;52.058;4.824;2024-03-23T10:54:48;10.48;;;5.47;;
74908;SDS011;63468;52.058;4.824;2024-03-23T10:57:17;10.95;;;6.22;;
74908;SDS011;63468;52.058;4.824;2024-03-23T10:59:44;11.57;;;6.72;;
74908;SDS011;63468;52.058;4.824;2024-03-23T11:02:18;10.68;;;6.68;;
74908;SDS011;63468;52.058;4.824;2024-03-23T11:04:47;9.07;;;5.68;;
74908;SDS011;63468;52.058;4.824;2024-03-23T11:09:58;13.05;;;5.38;;
74908;SDS011;63468;52.058;4.824;2024-03-23T11:17:28;12.32;;;5.63;;
74908;SDS011;63468;52.058;4.824;2024-03-23T11:20:00;12.32;;;5.30;;
74908;SDS011;63468;52.058;4.824;2024-03-23T11:22:45;7.95;;;5.20;;
74908;SDS011;63468;52.058;4.824;2024-03-23T11:25:18;10.65;;;6.28;;
74908;SDS011;63468;52.058;4.824;2024-03-23T11:27:46;12.23;;;5.70;;
74908;SDS011;63468;52.058;4.824;2024-03-23T11:30:15;11.05;;;6.38;;
74908;SDS011;63468;52.058;4.824;2024-03-23T11:32:46;9.25;;;6.50;;
74908;SDS011;63468;52.058;4.824;2024-03-23T11:38:16;14.05;;;6.22;;
74908;SDS011;63468;52.058;4.824;2024-03-23T11:40:47;11.10;;;5.90;;
74908;SDS011;63468;52.058;4.824;2024-03-23T11:43:14;12.10;;;5.70;;
74908;SDS011;63468;52.058;4.824;2024-03-23T11:45:45;14.40;;;6.25;;
74908;SDS011;63468;52.058;4.824;2024-03-23T11:48:17;9.32;;;5.57;;
74908;SDS011;63468;52.058;4.824;2024-03-23T11:50:44;12.02;;;5.97;;
74908;SDS011;63468;52.058;4.824;2024-03-23T11:55:40;15.32;;;7.07;;
74908;SDS011;63468;52.058;4.824;2024-03-23T11:58:09;14.13;;;6.18;;
74908;SDS011;63468;52.058;4.824;2024-03-23T12:00:35;13.75;;;6.95;;
74908;SDS011;63468;52.058;4.824;2024-03-23T12:03:04;10.98;;;7.78;;
74908;SDS011;63468;52.058;4.824;2024-03-23T12:05:30;14.82;;;7.68;;
74908;SDS011;63468;52.058;4.824;2024-03-23T12:13:20;12.82;;;6.40;;
74908;SDS011;63468;52.058;4.824;2024-03-23T12:15:47;14.82;;;6.88;;
74908;SDS011;63468;52.058;4.824;2024-03-23T12:18:14;9.68;;;6.50;;
74908;SDS011;63468;52.058;4.824;2024-03-23T12:20:39;10.00;;;8.00;;
74908;SDS011;63468;52.058;4.824;2024-03-23T12:23:08;10.40;;;7.50;;
74908;SDS011;63468;52.058;4.824;2024-03-23T12:28:06;10.65;;;6.72;;
74908;SDS011;63468;52.058;4.824;2024-03-23T12:30:49;12.30;;;6.45;;
74908;SDS011;63468;52.058;4.824;2024-03-23T12:33:14;13.65;;;6.72;;
74908;SDS011;63468;52.058;4.824;2024-03-23T12:35:39;13.77;;;8.43;;
74908;SDS011;63468;52.058;4.824;2024-03-23T12:38:05;11.45;;;7.40;;
74908;SDS011;63468;52.058;4.824;2024-03-23T12:40:30;9.85;;;6.53;;
74908;SDS011;63468;52.058;4.824;2024-03-23T12:42:56;9.18;;;5.85;;
74908;SDS011;63468;52.058;4.824;2024-03-23T12:45:21;9.35;;;3.95;;
74908;SDS011;63468;52.058;4.824;2024-03-23T12:47:47;9.65;;;4.30;;
74908;SDS011;63468;52.058;4.824;2024-03-23T12:50:12;8.23;;;6.15;;
74908;SDS011;63468;52.058;4.824;2024-03-23T12:52:38;6.95;;;3.70;;
74908;SDS011;63468;52.058;4.824;2024-03-23T12:55:03;11.35;;;4.68;;
74908;SDS011;63468;52.058;4.824;2024-03-23T12:57:31;16.67;;;3.83;;
74908;SDS011;63468;52.058;4.824;2024-03-23T12:59:56;9.95;;;4.13;;
74908;SDS011;63468;52.058;4.824;2024-03-23T13:02:22;7.53;;;3.85;;
74908;SDS011;63468;52.058;4.824;2024-03-23T13:04:51;14.30;;;4.95;;
74908;SDS011;63468;52.058;4.824;2024-03-23T13:07:17;13.02;;;3.63;;
74908;SDS011;63468;52.058;4.824;2024-03-23T13:09:43;10.77;;;3.28;;
74908;SDS011;63468;52.058;4.824;2024-03-23T13:12:09;12.02;;;3.35;;
74908;SDS011;63468;52.058;4.824;2024-03-23T13:14:34;9.23;;;3.42;;
74908;SDS011;63468;52.058;4.824;2024-03-23T13:17:00;12.43;;;3.40;;
74908;SDS011;63468;52.058;4.824;2024-03-23T13:19:26;10.02;;;4.32;;
74908;SDS011;63468;52.058;4.824;2024-03-23T13:21:53;11.50;;;4.75;;
74908;SDS011;63468;52.058;4.824;2024-03-23T13:24:23;10.90;;;5.28;;
74908;SDS011;63468;52.058;4.824;2024-03-23T13:26:52;9.20;;;4.75;;
74908;SDS011;63468;52.058;4.824;2024-03-23T13:29:18;10.68;;;4.93;;
74908;SDS011;63468;52.058;4.824;2024-03-23T13:31:44;12.32;;;4.65;;
74908;SDS011;63468;52.058;4.824;2024-03-23T13:34:10;11.18;;;4.63;;
74908;SDS011;63468;52.058;4.824;2024-03-23T13:36:36;11.38;;;4.47;;
74908;SDS011;63468;52.058;4.824;2024-03-23T13:39:04;21.35;;;3.97;;
74908;SDS011;63468;52.058;4.824;2024-03-23T13:41:37;15.60;;;4.20;;
74908;SDS011;63468;52.058;4.824;2024-03-23T13:44:05;11.13;;;3.95;;
74908;SDS011;63468;52.058;4.824;2024-03-23T13:46:31;14.00;;;4.70;;
74908;SDS011;63468;52.058;4.824;2024-03-23T13:48:57;14.50;;;4.75;;
74908;SDS011;63468;52.058;4.824;2024-03-23T13:51:25;10.27;;;4.55;;
74908;SDS011;63468;52.058;4.824;2024-03-23T13:56:20;13.75;;;4.57;;
74908;SDS011;63468;52.058;4.824;2024-03-23T13:58:45;8.95;;;5.75;;
74908;SDS011;63468;52.058;4.824;2024-03-23T14:01:12;7.80;;;6.13;;
74908;SDS011;63468;52.058;4.824;2024-03-23T14:03:38;10.43;;;5.47;;
74908;SDS011;63468;52.058;4.824;2024-03-23T14:06:03;13.30;;;5.90;;
74908;SDS011;63468;52.058;4.824;2024-03-23T14:08:29;8.88;;;4.65;;
74908;SDS011;63468;52.058;4.824;2024-03-23T14:10:58;8.45;;;4.78;;
74908;SDS011;63468;52.058;4.824;2024-03-23T14:13:23;9.88;;;4.88;;
74908;SDS011;63468;52.058;4.824;2024-03-23T14:15:52;10.88;;;5.07;;
74908;SDS011;63468;52.058;4.824;2024-03-23T14:18:18;9.15;;;5.28;;
74908;SDS011;63468;52.058;4.824;2024-03-23T14:20:43;10.00;;;5.50;;
74908;SDS011;63468;52.058;4.824;2024-03-23T14:23:09;12.00;;;6.45;;
74908;SDS011;63468;52.058;4.824;2024-03-23T14:25:34;8.05;;;5.70;;
74908;SDS011;63468;52.058;4.824;2024-03-23T14:27:59;7.25;;;5.82;;
74908;SDS011;63468;52.058;4.824;2024-03-23T14:30:25;10.52;;;5.75;;
74908;SDS011;63468;52.058;4.824;2024-03-23T14:32:50;13.55;;;6.07;;
74908;SDS011;63468;52.058;4.824;2024-03-23T14:35:16;10.75;;;6.10;;
74908;SDS011;63468;52.058;4.824;2024-03-23T14:37:41;7.72;;;5.75;;
74908;SDS011;63468;52.058;4.824;2024-03-23T14:40:07;10.38;;;4.95;;
74908;SDS011;63468;52.058;4.824;2024-03-23T14:42:33;8.88;;;5.05;;
74908;SDS011;63468;52.058;4.824;2024-03-23T14:44:58;8.98;;;4.90;;
74908;SDS011;63468;52.058;4.824;2024-03-23T14:47:24;10.18;;;4.82;;
74908;SDS011;63468;52.058;4.824;2024-03-23T14:49:49;9.70;;;4.07;;
74908;SDS011;63468;52.058;4.824;2024-03-23T14:52:19;12.25;;;4.70;;
74908;SDS011;63468;52.058;4.824;2024-03-23T14:54:45;10.60;;;4.80;;
74908;SDS011;63468;52.058;4.824;2024-03-23T14:57:11;7.55;;;4.30;;
74908;SDS011;63468;52.058;4.824;2024-03-23T14:59:36;9.13;;;4.85;;
74908;SDS011;63468;52.058;4.824;2024-03-23T15:02:05;12.45;;;5.18;;
74908;SDS011;63468;52.058;4.824;2024-03-23T15:04:31;9.02;;;4.00;;
74908;SDS011;63468;52.058;4.824;2024-03-23T15:06:57;9.13;;;3.53;;
74908;SDS011;63468;52.058;4.824;2024-03-23T15:09:22;10.55;;;3.35;;
74908;SDS011;63468;52.058;4.824;2024-03-23T15:11:48;7.65;;;4.03;;
74908;SDS011;63468;52.058;4.824;2024-03-23T15:14:13;9.57;;;3.47;;
74908;SDS011;63468;52.058;4.824;2024-03-23T15:16:38;10.80;;;3.63;;
74908;SDS011;63468;52.058;4.824;2024-03-23T15:19:03;11.70;;;4.80;;
74908;SDS011;63468;52.058;4.824;2024-03-23T15:21:31;9.85;;;3.80;;
74908;SDS011;63468;52.058;4.824;2024-03-23T15:23:57;8.07;;;3.65;;
74908;SDS011;63468;52.058;4.824;2024-03-23T15:26:22;9.23;;;3.83;;
74908;SDS011;63468;52.058;4.824;2024-03-23T15:28:48;8.65;;;4.47;;
74908;SDS011;63468;52.058;4.824;2024-03-23T15:31:22;8.35;;;4.88;;
74908;SDS011;63468;52.058;4.824;2024-03-23T15:33:48;9.88;;;4.93;;
74908;SDS011;63468;52.058;4.824;2024-03-23T15:36:13;8.23;;;4.97;;
74908;SDS011;63468;52.058;4.824;2024-03-23T15:38:39;11.00;;;4.65;;
74908;SDS011;63468;52.058;4.824;2024-03-23T15:41:04;9.02;;;4.90;;
74908;SDS011;63468;52.058;4.824;2024-03-23T15:43:29;13.15;;;7.80;;
74908;SDS011;63468;52.058;4.824;2024-03-23T15:46:03;8.70;;;5.15;;
74908;SDS011;63468;52.058;4.824;2024-03-23T15:48:31;12.45;;;6.75;;
74908;SDS011;63468;52.058;4.824;2024-03-23T15:53:26;14.32;;;6.45;;
74908;SDS011;63468;52.058;4.824;2024-03-23T15:55:55;12.88;;;5.43;;